Monday, December 18, 2017, 12:51 PM GMT
Back to Local

CWDQ, La Tuque

Location: , , Canada Lat: 47.417
Local Time: 12:51 PM GMT (12:51 GMT) Lon: -72.8
Time Zone: GMT Elev: 554 ft

Show me the last for .
Show Coded

Time T Td Feel RH Dir Speed Gust Alt SLP Vis Weather Sky Remarks
2017-12-18 12:00 -6 -10 - 83 10° 1 - - 30.15 0 None
2017-12-18 11:00 -7 -11 - 82 360° 1 - - 30.17 0 None
2017-12-18 10:00 -8 -10 - 89 - Calm - - 30.20 0 None
2017-12-18 09:00 -9 -13 -18 82 350° 3 - - 30.22 0 None
2017-12-18 08:00 -9 -13 - 82 - Calm - - 30.24 0 None
2017-12-18 07:00 -12 -16 - 80 100° 1 - - 30.26 0 None
2017-12-18 06:00 -14 -18 - 80 - Calm - - 30.27 0 None
2017-12-18 05:00 -15 -19 - 79 90° 1 - - 30.28 0 None
2017-12-18 04:00 -17 -21 - 79 - Calm - - 30.30 0 None
2017-12-18 03:00 -16 -21 - 77 90° 1 - - 30.32 0 None
2017-12-18 02:00 -17 -22 - 78 - Calm - - 30.33 0 None
2017-12-18 01:00 -18 -23 - 78 - Calm - - 30.34 0 None
2017-12-18 00:00 -16 -20 - 79 - Calm - - 30.36 0 None
2017-12-17 23:00 -12 -16 - 82 130° 1 - - 30.36 0 None
2017-12-17 22:00 -8 -12 - 85 140° 2 - - 30.34 0 None
2017-12-17 21:00 -3 -10 -12 70 350° 3 - - 30.34 0 None
2017-12-17 20:00 0 -9 -11 63 330° 6 - - 30.33 0 None
2017-12-17 19:00 0 -9 - 63 320° 1 - - 30.33 0 None
2017-12-17 18:00 -1 -9 - 67 10° 2 - - 30.34 0 1-hr Precip Total: 0.04"
2017-12-17 17:00 -4 -12 -13 69 360° 3 - - 30.37 0 None
2017-12-17 16:00 -7 -12 - 79 350° 1 - - 30.39 0 None
2017-12-17 15:00 -11 -15 - 81 350° 1 - - 30.39 0 None
2017-12-17 14:00 -17 -22 - 78 320° 1 - - 30.39 0 None
2017-12-17 13:00 -22 -28 - 75 - Calm - - 30.39 0 None

Support USWX by starting your Amazon purchase here.